sensor_id;sensor_type;location;lat;lon;timestamp;pressure;altitude;pressure_sealevel;temperature;humidity
43420;BME280;29017;51.514;-0.178;2023-06-19T00:02:22;100399.38;;;19.72;93.36
43420;BME280;29017;51.514;-0.178;2023-06-19T00:04:50;100399.38;;;19.72;93.16
43420;BME280;29017;51.514;-0.178;2023-06-19T00:07:17;100400.06;;;19.67;92.29
43420;BME280;29017;51.514;-0.178;2023-06-19T00:09:46;100405.91;;;19.57;92.17
43420;BME280;29017;51.514;-0.178;2023-06-19T00:12:13;100399.25;;;19.48;92.61
43420;BME280;29017;51.514;-0.178;2023-06-19T00:14:41;100396.78;;;19.47;93.09
43420;BME280;29017;51.514;-0.178;2023-06-19T00:17:08;100400.72;;;19.44;93.65
43420;BME280;29017;51.514;-0.178;2023-06-19T00:19:35;100402.94;;;19.47;94.17
43420;BME280;29017;51.514;-0.178;2023-06-19T00:22:04;100399.84;;;19.50;93.81
43420;BME280;29017;51.514;-0.178;2023-06-19T00:24:31;100415.06;;;19.43;93.41
43420;BME280;29017;51.514;-0.178;2023-06-19T00:26:59;100401.38;;;19.40;93.45
43420;BME280;29017;51.514;-0.178;2023-06-19T00:29:29;100404.47;;;19.37;93.46
43420;BME280;29017;51.514;-0.178;2023-06-19T00:31:57;100404.25;;;19.38;94.09
43420;BME280;29017;51.514;-0.178;2023-06-19T00:34:29;100412.63;;;19.42;94.09
43420;BME280;29017;51.514;-0.178;2023-06-19T00:36:59;100409.59;;;19.38;93.68
43420;BME280;29017;51.514;-0.178;2023-06-19T00:39:26;100402.81;;;19.36;93.84
43420;BME280;29017;51.514;-0.178;2023-06-19T00:41:55;100406.69;;;19.40;93.95
43420;BME280;29017;51.514;-0.178;2023-06-19T00:44:24;100406.25;;;19.43;94.09
43420;BME280;29017;51.514;-0.178;2023-06-19T00:46:57;100411.41;;;19.44;93.46
43420;BME280;29017;51.514;-0.178;2023-06-19T00:49:28;100414.25;;;19.43;93.17
43420;BME280;29017;51.514;-0.178;2023-06-19T00:51:55;100408.72;;;19.44;93.41
43420;BME280;29017;51.514;-0.178;2023-06-19T00:54:26;100407.50;;;19.40;92.82
43420;BME280;29017;51.514;-0.178;2023-06-19T00:56:53;100407.72;;;19.39;92.66
43420;BME280;29017;51.514;-0.178;2023-06-19T00:59:21;100417.38;;;19.40;93.14
43420;BME280;29017;51.514;-0.178;2023-06-19T01:01:49;100420.84;;;19.40;93.50
43420;BME280;29017;51.514;-0.178;2023-06-19T01:04:16;100428.84;;;19.40;93.57
43420;BME280;29017;51.514;-0.178;2023-06-19T01:06:50;100418.97;;;19.41;92.66
43420;BME280;29017;51.514;-0.178;2023-06-19T01:09:20;100425.38;;;19.40;93.21
43420;BME280;29017;51.514;-0.178;2023-06-19T01:11:53;100421.28;;;19.37;93.73
43420;BME280;29017;51.514;-0.178;2023-06-19T01:14:25;100426.41;;;19.39;93.42
43420;BME280;29017;51.514;-0.178;2023-06-19T01:16:53;100422.09;;;19.38;93.47
43420;BME280;29017;51.514;-0.178;2023-06-19T01:19:21;100416.78;;;19.38;93.43
43420;BME280;29017;51.514;-0.178;2023-06-19T01:21:49;100421.44;;;19.42;93.29
43420;BME280;29017;51.514;-0.178;2023-06-19T01:24:17;100421.22;;;19.44;93.32
43420;BME280;29017;51.514;-0.178;2023-06-19T01:26:44;100424.50;;;19.46;92.82
43420;BME280;29017;51.514;-0.178;2023-06-19T01:29:13;100431.72;;;19.45;93.17
43420;BME280;29017;51.514;-0.178;2023-06-19T01:31:50;100420.22;;;19.45;93.20
43420;BME280;29017;51.514;-0.178;2023-06-19T01:34:20;100427.00;;;19.41;93.11
43420;BME280;29017;51.514;-0.178;2023-06-19T01:36:48;100425.59;;;19.38;92.62
43420;BME280;29017;51.514;-0.178;2023-06-19T01:39:18;100424.16;;;19.36;92.34
43420;BME280;29017;51.514;-0.178;2023-06-19T01:41:47;100424.97;;;19.36;93.01
43420;BME280;29017;51.514;-0.178;2023-06-19T01:44:15;100416.41;;;19.34;92.77
43420;BME280;29017;51.514;-0.178;2023-06-19T01:46:42;100419.06;;;19.34;93.26
43420;BME280;29017;51.514;-0.178;2023-06-19T01:49:09;100421.50;;;19.36;93.42
43420;BME280;29017;51.514;-0.178;2023-06-19T01:51:36;100418.00;;;19.35;93.38
43420;BME280;29017;51.514;-0.178;2023-06-19T01:54:03;100420.09;;;19.33;93.61
43420;BME280;29017;51.514;-0.178;2023-06-19T01:56:31;100425.22;;;19.35;93.57
43420;BME280;29017;51.514;-0.178;2023-06-19T01:58:58;100421.75;;;19.34;93.98
43420;BME280;29017;51.514;-0.178;2023-06-19T02:01:25;100434.25;;;19.34;93.12
43420;BME280;29017;51.514;-0.178;2023-06-19T02:03:52;100428.91;;;19.34;93.34
43420;BME280;29017;51.514;-0.178;2023-06-19T02:06:19;100437.13;;;19.32;93.26
43420;BME280;29017;51.514;-0.178;2023-06-19T02:08:48;100437.97;;;19.33;94.01
43420;BME280;29017;51.514;-0.178;2023-06-19T02:11:15;100445.34;;;19.31;93.75
43420;BME280;29017;51.514;-0.178;2023-06-19T02:13:42;100450.94;;;19.29;93.22
43420;BME280;29017;51.514;-0.178;2023-06-19T02:16:09;100440.47;;;19.28;93.54
43420;BME280;29017;51.514;-0.178;2023-06-19T02:18:37;100438.88;;;19.20;93.68
43420;BME280;29017;51.514;-0.178;2023-06-19T02:21:04;100442.16;;;19.22;94.38
43420;BME280;29017;51.514;-0.178;2023-06-19T02:23:33;100457.94;;;19.23;94.48
43420;BME280;29017;51.514;-0.178;2023-06-19T02:26:01;100440.31;;;19.22;94.28
43420;BME280;29017;51.514;-0.178;2023-06-19T02:28:28;100449.56;;;19.20;94.28
43420;BME280;29017;51.514;-0.178;2023-06-19T02:30:55;100446.50;;;19.16;93.94
43420;BME280;29017;51.514;-0.178;2023-06-19T02:33:22;100449.00;;;19.11;94.06
43420;BME280;29017;51.514;-0.178;2023-06-19T02:35:49;100454.97;;;19.13;94.58
43420;BME280;29017;51.514;-0.178;2023-06-19T02:38:16;100456.00;;;19.12;94.73
43420;BME280;29017;51.514;-0.178;2023-06-19T02:40:48;100465.69;;;19.07;93.86
43420;BME280;29017;51.514;-0.178;2023-06-19T02:43:15;100466.34;;;19.02;94.34
43420;BME280;29017;51.514;-0.178;2023-06-19T02:45:42;100465.31;;;19.03;94.17
43420;BME280;29017;51.514;-0.178;2023-06-19T02:48:09;100472.28;;;19.04;94.08
43420;BME280;29017;51.514;-0.178;2023-06-19T02:50:37;100471.66;;;19.02;94.17
43420;BME280;29017;51.514;-0.178;2023-06-19T02:53:04;100475.16;;;19.03;93.92
43420;BME280;29017;51.514;-0.178;2023-06-19T02:55:31;100468.38;;;19.00;93.93
43420;BME280;29017;51.514;-0.178;2023-06-19T02:57:58;100471.50;;;18.97;93.70
43420;BME280;29017;51.514;-0.178;2023-06-19T03:00:25;100475.41;;;18.95;93.84
43420;BME280;29017;51.514;-0.178;2023-06-19T03:02:55;100475.19;;;18.96;94.45
43420;BME280;29017;51.514;-0.178;2023-06-19T03:05:22;100478.88;;;18.95;94.33
43420;BME280;29017;51.514;-0.178;2023-06-19T03:07:49;100485.28;;;18.94;93.45
43420;BME280;29017;51.514;-0.178;2023-06-19T03:10:16;100487.94;;;18.94;93.16
43420;BME280;29017;51.514;-0.178;2023-06-19T03:12:43;100497.38;;;18.90;92.96
43420;BME280;29017;51.514;-0.178;2023-06-19T03:15:11;100496.19;;;18.86;92.92
43420;BME280;29017;51.514;-0.178;2023-06-19T03:17:38;100509.09;;;18.89;93.60
43420;BME280;29017;51.514;-0.178;2023-06-19T03:20:05;100513.19;;;18.92;93.86
43420;BME280;29017;51.514;-0.178;2023-06-19T03:22:33;100522.03;;;18.86;93.07
43420;BME280;29017;51.514;-0.178;2023-06-19T03:25:00;100520.81;;;18.82;93.06
43420;BME280;29017;51.514;-0.178;2023-06-19T03:27:27;100526.97;;;18.82;92.86
43420;BME280;29017;51.514;-0.178;2023-06-19T03:29:56;100537.03;;;18.80;92.68
43420;BME280;29017;51.514;-0.178;2023-06-19T03:32:23;100535.19;;;18.80;93.33
43420;BME280;29017;51.514;-0.178;2023-06-19T03:34:50;100536.22;;;18.79;93.37
43420;BME280;29017;51.514;-0.178;2023-06-19T03:37:17;100537.47;;;18.77;92.55
43420;BME280;29017;51.514;-0.178;2023-06-19T03:39:44;100542.41;;;18.73;92.41
43420;BME280;29017;51.514;-0.178;2023-06-19T03:42:11;100545.50;;;18.70;92.60
43420;BME280;29017;51.514;-0.178;2023-06-19T03:44:38;100539.56;;;18.68;92.71
43420;BME280;29017;51.514;-0.178;2023-06-19T03:47:05;100538.56;;;18.63;92.86
43420;BME280;29017;51.514;-0.178;2023-06-19T03:49:32;100550.06;;;18.63;93.14
43420;BME280;29017;51.514;-0.178;2023-06-19T03:51:59;100548.41;;;18.62;93.02
43420;BME280;29017;51.514;-0.178;2023-06-19T03:54:26;100554.78;;;18.61;92.74
43420;BME280;29017;51.514;-0.178;2023-06-19T03:56:53;100556.22;;;18.57;92.79
43420;BME280;29017;51.514;-0.178;2023-06-19T03:59:20;100554.16;;;18.53;93.06
43420;BME280;29017;51.514;-0.178;2023-06-19T04:01:48;100558.88;;;18.51;93.35
43420;BME280;29017;51.514;-0.178;2023-06-19T04:04:15;100559.91;;;18.50;93.50
43420;BME280;29017;51.514;-0.178;2023-06-19T04:06:42;100561.97;;;18.48;93.35
43420;BME280;29017;51.514;-0.178;2023-06-19T04:09:15;100567.91;;;18.50;93.24
43420;BME280;29017;51.514;-0.178;2023-06-19T04:11:42;100571.38;;;18.50;93.18
43420;BME280;29017;51.514;-0.178;2023-06-19T04:14:09;100574.88;;;18.51;92.79
43420;BME280;29017;51.514;-0.178;2023-06-19T04:16:36;100579.19;;;18.52;93.17
43420;BME280;29017;51.514;-0.178;2023-06-19T04:19:03;100583.88;;;18.50;93.58
43420;BME280;29017;51.514;-0.178;2023-06-19T04:21:30;100589.00;;;18.51;93.33
43420;BME280;29017;51.514;-0.178;2023-06-19T04:23:58;100587.81;;;18.54;93.23
43420;BME280;29017;51.514;-0.178;2023-06-19T04:26:25;100586.97;;;18.53;93.14
43420;BME280;29017;51.514;-0.178;2023-06-19T04:28:52;100586.97;;;18.53;92.73
43420;BME280;29017;51.514;-0.178;2023-06-19T04:31:19;100591.28;;;18.54;93.40
43420;BME280;29017;51.514;-0.178;2023-06-19T04:33:46;100594.38;;;18.58;93.25
43420;BME280;29017;51.514;-0.178;2023-06-19T04:36:13;100602.75;;;18.61;93.61
43420;BME280;29017;51.514;-0.178;2023-06-19T04:38:41;100595.78;;;18.60;92.66
43420;BME280;29017;51.514;-0.178;2023-06-19T04:41:09;100599.25;;;18.61;92.70
43420;BME280;29017;51.514;-0.178;2023-06-19T04:43:36;100600.50;;;18.58;92.68
43420;BME280;29017;51.514;-0.178;2023-06-19T04:46:03;100599.69;;;18.58;92.52
43420;BME280;29017;51.514;-0.178;2023-06-19T04:48:30;100596.59;;;18.61;92.64
43420;BME280;29017;51.514;-0.178;2023-06-19T04:50:58;100607.88;;;18.63;92.47
43420;BME280;29017;51.514;-0.178;2023-06-19T04:53:27;100609.28;;;18.65;92.62
43420;BME280;29017;51.514;-0.178;2023-06-19T04:55:54;100605.78;;;18.65;92.34
43420;BME280;29017;51.514;-0.178;2023-06-19T04:58:22;100612.19;;;18.64;92.35
43420;BME280;29017;51.514;-0.178;2023-06-19T05:00:49;100604.56;;;18.67;92.76
43420;BME280;29017;51.514;-0.178;2023-06-19T05:03:18;100605.97;;;18.70;93.19
43420;BME280;29017;51.514;-0.178;2023-06-19T05:05:45;100610.50;;;18.69;92.14
43420;BME280;29017;51.514;-0.178;2023-06-19T05:08:12;100610.28;;;18.71;91.88
43420;BME280;29017;51.514;-0.178;2023-06-19T05:10:39;100610.28;;;18.71;91.60
43420;BME280;29017;51.514;-0.178;2023-06-19T05:13:08;100604.38;;;18.69;91.65
43420;BME280;29017;51.514;-0.178;2023-06-19T05:15:35;100599.44;;;18.66;91.67
43420;BME280;29017;51.514;-0.178;2023-06-19T05:18:02;100591.25;;;18.67;91.94
43420;BME280;29017;51.514;-0.178;2023-06-19T05:20:29;100593.47;;;18.70;92.65
43420;BME280;29017;51.514;-0.178;2023-06-19T05:22:57;100611.53;;;18.68;92.09
43420;BME280;29017;51.514;-0.178;2023-06-19T05:25:24;100609.50;;;18.64;92.21
43420;BME280;29017;51.514;-0.178;2023-06-19T05:27:51;100614.03;;;18.63;92.35
43420;BME280;29017;51.514;-0.178;2023-06-19T05:30:18;100614.22;;;18.62;92.08
43420;BME280;29017;51.514;-0.178;2023-06-19T05:32:46;100623.63;;;18.64;92.54
43420;BME280;29017;51.514;-0.178;2023-06-19T05:35:13;100622.59;;;18.65;92.18
43420;BME280;29017;51.514;-0.178;2023-06-19T05:37:42;100624.06;;;18.68;92.48
43420;BME280;29017;51.514;-0.178;2023-06-19T05:40:11;100635.09;;;18.71;92.81
43420;BME280;29017;51.514;-0.178;2023-06-19T05:42:39;100632.44;;;18.71;92.81
43420;BME280;29017;51.514;-0.178;2023-06-19T05:45:07;100631.63;;;18.71;92.85
43420;BME280;29017;51.514;-0.178;2023-06-19T05:47:34;100637.56;;;18.73;92.75
43420;BME280;29017;51.514;-0.178;2023-06-19T05:50:02;100636.75;;;18.72;93.02
43420;BME280;29017;51.514;-0.178;2023-06-19T05:52:29;100641.25;;;18.72;93.03
43420;BME280;29017;51.514;-0.178;2023-06-19T05:54:56;100637.78;;;18.71;93.24
43420;BME280;29017;51.514;-0.178;2023-06-19T05:57:25;100627.09;;;18.71;93.58
43420;BME280;29017;51.514;-0.178;2023-06-19T05:59:52;100637.34;;;18.74;93.61
43420;BME280;29017;51.514;-0.178;2023-06-19T06:02:20;100625.88;;;18.74;93.21
43420;BME280;29017;51.514;-0.178;2023-06-19T06:04:47;100634.47;;;18.76;93.53
43420;BME280;29017;51.514;-0.178;2023-06-19T06:07:15;100631.81;;;18.76;93.58
43420;BME280;29017;51.514;-0.178;2023-06-19T06:09:42;100633.25;;;18.78;93.23
43420;BME280;29017;51.514;-0.178;2023-06-19T06:12:09;100631.34;;;18.86;93.22
43420;BME280;29017;51.514;-0.178;2023-06-19T06:14:36;100634.19;;;18.91;92.88
43420;BME280;29017;51.514;-0.178;2023-06-19T06:17:03;100629.28;;;18.94;92.70
43420;BME280;29017;51.514;-0.178;2023-06-19T06:19:32;100628.66;;;18.99;92.94
43420;BME280;29017;51.514;-0.178;2023-06-19T06:22:00;100632.50;;;19.09;93.40
43420;BME280;29017;51.514;-0.178;2023-06-19T06:24:27;100629.38;;;19.12;92.02
43420;BME280;29017;51.514;-0.178;2023-06-19T06:26:54;100633.06;;;19.11;91.70
43420;BME280;29017;51.514;-0.178;2023-06-19T06:29:21;100636.94;;;19.15;91.25
43420;BME280;29017;51.514;-0.178;2023-06-19T06:31:49;100643.06;;;19.29;91.16
43420;BME280;29017;51.514;-0.178;2023-06-19T06:34:19;100638.44;;;19.43;90.67
43420;BME280;29017;51.514;-0.178;2023-06-19T06:36:47;100644.69;;;19.61;90.09
43420;BME280;29017;51.514;-0.178;2023-06-19T06:39:31;100643.03;;;19.67;88.95
43420;BME280;29017;51.514;-0.178;2023-06-19T06:41:58;100646.50;;;19.68;88.17
43420;BME280;29017;51.514;-0.178;2023-06-19T06:44:26;100649.19;;;19.68;87.87
43420;BME280;29017;51.514;-0.178;2023-06-19T06:46:58;100649.78;;;19.70;87.63
43420;BME280;29017;51.514;-0.178;2023-06-19T06:49:30;100649.56;;;19.71;87.83
43420;BME280;29017;51.514;-0.178;2023-06-19T06:51:57;100661.22;;;19.77;88.44
43420;BME280;29017;51.514;-0.178;2023-06-19T06:54:25;100662.03;;;19.77;87.40
43420;BME280;29017;51.514;-0.178;2023-06-19T06:57:05;100658.34;;;19.78;87.07
43420;BME280;29017;51.514;-0.178;2023-06-19T06:59:38;100660.97;;;19.85;86.87
43420;BME280;29017;51.514;-0.178;2023-06-19T07:02:05;100659.72;;;19.87;86.85
43420;BME280;29017;51.514;-0.178;2023-06-19T07:04:33;100662.78;;;19.91;87.08
43420;BME280;29017;51.514;-0.178;2023-06-19T07:07:01;100659.00;;;19.98;86.82
43420;BME280;29017;51.514;-0.178;2023-06-19T07:09:37;100665.13;;;20.05;85.84
43420;BME280;29017;51.514;-0.178;2023-06-19T07:12:05;100674.13;;;20.11;85.18
43420;BME280;29017;51.514;-0.178;2023-06-19T07:14:34;100668.69;;;20.18;84.50
43420;BME280;29017;51.514;-0.178;2023-06-19T07:17:11;100674.19;;;20.23;84.60
43420;BME280;29017;51.514;-0.178;2023-06-19T07:19:44;100671.53;;;20.23;84.68
43420;BME280;29017;51.514;-0.178;2023-06-19T07:22:12;100676.06;;;20.22;83.82
43420;BME280;29017;51.514;-0.178;2023-06-19T07:24:49;100668.69;;;20.18;83.22
43420;BME280;29017;51.514;-0.178;2023-06-19T07:27:41;100669.34;;;20.13;82.50
43420;BME280;29017;51.514;-0.178;2023-06-19T07:30:11;100669.84;;;20.03;82.34
43420;BME280;29017;51.514;-0.178;2023-06-19T07:32:42;100668.44;;;20.01;82.90
43420;BME280;29017;51.514;-0.178;2023-06-19T07:35:10;100664.63;;;20.15;83.77
43420;BME280;29017;51.514;-0.178;2023-06-19T07:37:38;100672.13;;;20.31;82.88
43420;BME280;29017;51.514;-0.178;2023-06-19T07:40:06;100677.09;;;20.46;81.50
43420;BME280;29017;51.514;-0.178;2023-06-19T07:42:33;100669.09;;;20.82;81.06
43420;BME280;29017;51.514;-0.178;2023-06-19T07:45:01;100672.50;;;21.79;78.49
43420;BME280;29017;51.514;-0.178;2023-06-19T07:47:33;100679.22;;;22.81;73.96
43420;BME280;29017;51.514;-0.178;2023-06-19T07:50:10;100675.13;;;23.19;71.12
43420;BME280;29017;51.514;-0.178;2023-06-19T07:52:37;100671.31;;;23.15;69.98
43420;BME280;29017;51.514;-0.178;2023-06-19T07:55:14;100671.09;;;23.05;69.43
43420;BME280;29017;51.514;-0.178;2023-06-19T07:57:55;100674.88;;;22.92;70.48
43420;BME280;29017;51.514;-0.178;2023-06-19T08:00:27;100679.47;;;22.80;71.26
43420;BME280;29017;51.514;-0.178;2023-06-19T08:02:54;100672.00;;;22.70;71.44
43420;BME280;29017;51.514;-0.178;2023-06-19T08:05:49;100677.69;;;22.62;72.52
43420;BME280;29017;51.514;-0.178;2023-06-19T08:08:17;100673.03;;;22.57;71.85
43420;BME280;29017;51.514;-0.178;2023-06-19T08:10:45;100683.66;;;22.52;73.29
43420;BME280;29017;51.514;-0.178;2023-06-19T08:13:20;100683.91;;;22.39;72.61
43420;BME280;29017;51.514;-0.178;2023-06-19T08:15:53;100683.91;;;22.28;71.81
43420;BME280;29017;51.514;-0.178;2023-06-19T08:18:21;100686.22;;;22.36;71.84
43420;BME280;29017;51.514;-0.178;2023-06-19T08:20:49;100679.22;;;22.58;70.66
43420;BME280;29017;51.514;-0.178;2023-06-19T08:23:18;100679.59;;;22.73;71.99
43420;BME280;29017;51.514;-0.178;2023-06-19T08:25:45;100687.28;;;22.70;71.42
43420;BME280;29017;51.514;-0.178;2023-06-19T08:28:13;100667.66;;;22.69;71.22
43420;BME280;29017;51.514;-0.178;2023-06-19T08:30:44;100675.88;;;23.02;70.29
43420;BME280;29017;51.514;-0.178;2023-06-19T08:33:13;100680.97;;;23.56;67.80
43420;BME280;29017;51.514;-0.178;2023-06-19T08:35:40;100676.75;;;23.93;65.81
43420;BME280;29017;51.514;-0.178;2023-06-19T08:38:07;100670.09;;;24.12;64.37
43420;BME280;29017;51.514;-0.178;2023-06-19T08:40:35;100674.22;;;24.03;63.92
43420;BME280;29017;51.514;-0.178;2023-06-19T08:43:02;100677.09;;;23.80;65.12
43420;BME280;29017;51.514;-0.178;2023-06-19T08:45:30;100680.69;;;23.57;66.12
43420;BME280;29017;51.514;-0.178;2023-06-19T08:47:59;100685.53;;;23.43;66.32
43420;BME280;29017;51.514;-0.178;2023-06-19T08:50:27;100688.53;;;23.30;67.26
43420;BME280;29017;51.514;-0.178;2023-06-19T08:52:55;100684.56;;;23.21;67.29
43420;BME280;29017;51.514;-0.178;2023-06-19T08:55:23;100688.44;;;23.25;66.23
43420;BME280;29017;51.514;-0.178;2023-06-19T08:57:51;100700.69;;;23.21;65.78
43420;BME280;29017;51.514;-0.178;2023-06-19T09:00:25;100698.88;;;23.10;66.41
43420;BME280;29017;51.514;-0.178;2023-06-19T09:03:00;100702.53;;;22.92;66.58
43420;BME280;29017;51.514;-0.178;2023-06-19T09:05:41;100706.53;;;22.78;67.38
43420;BME280;29017;51.514;-0.178;2023-06-19T09:08:19;100701.50;;;22.82;68.92
43420;BME280;29017;51.514;-0.178;2023-06-19T09:13:23;100698.97;;;23.15;66.96
43420;BME280;29017;51.514;-0.178;2023-06-19T09:16:03;100706.44;;;23.13;66.68
43420;BME280;29017;51.514;-0.178;2023-06-19T09:18:44;100700.16;;;23.08;66.73
43420;BME280;29017;51.514;-0.178;2023-06-19T09:21:37;100699.22;;;23.14;66.72
43420;BME280;29017;51.514;-0.178;2023-06-19T09:24:11;100701.56;;;23.10;65.55
43420;BME280;29017;51.514;-0.178;2023-06-19T09:26:50;100701.56;;;23.10;66.96
43420;BME280;29017;51.514;-0.178;2023-06-19T09:29:18;100696.75;;;23.12;67.64
43420;BME280;29017;51.514;-0.178;2023-06-19T09:31:47;100696.72;;;23.24;67.30
43420;BME280;29017;51.514;-0.178;2023-06-19T09:34:15;100697.75;;;23.23;67.50
43420;BME280;29017;51.514;-0.178;2023-06-19T09:36:45;100702.31;;;23.22;67.25
43420;BME280;29017;51.514;-0.178;2023-06-19T09:39:15;100700.91;;;23.31;67.78
43420;BME280;29017;51.514;-0.178;2023-06-19T09:41:46;100702.16;;;23.40;66.29
43420;BME280;29017;51.514;-0.178;2023-06-19T09:44:14;100697.72;;;23.46;64.77
43420;BME280;29017;51.514;-0.178;2023-06-19T09:46:44;100704.25;;;23.50;65.57
43420;BME280;29017;51.514;-0.178;2023-06-19T09:49:15;100703.28;;;23.56;63.96
43420;BME280;29017;51.514;-0.178;2023-06-19T09:51:43;100701.97;;;23.59;62.66
43420;BME280;29017;51.514;-0.178;2023-06-19T09:54:10;100700.78;;;23.66;61.93
43420;BME280;29017;51.514;-0.178;2023-06-19T09:56:38;100696.03;;;23.73;61.92
43420;BME280;29017;51.514;-0.178;2023-06-19T09:59:19;100701.50;;;23.78;62.07
43420;BME280;29017;51.514;-0.178;2023-06-19T10:01:46;100704.28;;;23.83;61.04
43420;BME280;29017;51.514;-0.178;2023-06-19T10:04:13;100702.19;;;23.85;61.53
43420;BME280;29017;51.514;-0.178;2023-06-19T10:06:46;100714.56;;;23.86;61.11
43420;BME280;29017;51.514;-0.178;2023-06-19T10:09:32;100712.44;;;23.88;60.82
43420;BME280;29017;51.514;-0.178;2023-06-19T10:12:00;100711.16;;;23.91;60.93
43420;BME280;29017;51.514;-0.178;2023-06-19T10:14:46;100709.50;;;23.90;60.47
43420;BME280;29017;51.514;-0.178;2023-06-19T10:17:17;100710.41;;;23.96;61.95
43420;BME280;29017;51.514;-0.178;2023-06-19T10:19:50;100708.94;;;24.05;61.61
43420;BME280;29017;51.514;-0.178;2023-06-19T10:22:20;100714.63;;;24.08;60.91
43420;BME280;29017;51.514;-0.178;2023-06-19T10:24:51;100709.75;;;24.05;61.11
43420;BME280;29017;51.514;-0.178;2023-06-19T10:27:25;100708.06;;;24.16;61.79
43420;BME280;29017;51.514;-0.178;2023-06-19T10:29:53;100712.22;;;24.23;61.18
43420;BME280;29017;51.514;-0.178;2023-06-19T10:32:40;100710.94;;;24.26;60.59
43420;BME280;29017;51.514;-0.178;2023-06-19T10:35:12;100705.69;;;24.19;59.74
43420;BME280;29017;51.514;-0.178;2023-06-19T10:37:41;100699.00;;;24.05;61.15
43420;BME280;29017;51.514;-0.178;2023-06-19T10:40:08;100705.50;;;24.09;62.37
43420;BME280;29017;51.514;-0.178;2023-06-19T10:42:37;100704.78;;;24.14;62.06
43420;BME280;29017;51.514;-0.178;2023-06-19T10:45:05;100695.03;;;24.24;62.53
43420;BME280;29017;51.514;-0.178;2023-06-19T10:47:33;100699.19;;;24.32;62.68
43420;BME280;29017;51.514;-0.178;2023-06-19T10:50:00;100695.91;;;24.30;60.00
43420;BME280;29017;51.514;-0.178;2023-06-19T10:52:31;100683.94;;;24.21;60.03
43420;BME280;29017;51.514;-0.178;2023-06-19T10:54:58;100677.06;;;24.13;61.63
43420;BME280;29017;51.514;-0.178;2023-06-19T10:57:31;100686.44;;;24.11;62.14
43420;BME280;29017;51.514;-0.178;2023-06-19T10:59:58;100699.91;;;24.11;62.52
43420;BME280;29017;51.514;-0.178;2023-06-19T11:02:25;100686.22;;;24.12;62.20
43420;BME280;29017;51.514;-0.178;2023-06-19T11:04:53;100692.03;;;24.21;61.23
43420;BME280;29017;51.514;-0.178;2023-06-19T11:07:23;100684.56;;;24.28;60.44
43420;BME280;29017;51.514;-0.178;2023-06-19T11:09:50;100685.22;;;24.35;60.59
43420;BME280;29017;51.514;-0.178;2023-06-19T11:12:21;100691.50;;;24.41;61.02
43420;BME280;29017;51.514;-0.178;2023-06-19T11:14:49;100692.41;;;24.46;62.25
43420;BME280;29017;51.514;-0.178;2023-06-19T11:17:18;100690.00;;;24.50;61.14
43420;BME280;29017;51.514;-0.178;2023-06-19T11:19:49;100687.00;;;24.46;60.82
43420;BME280;29017;51.514;-0.178;2023-06-19T11:22:16;100685.06;;;24.42;61.00
43420;BME280;29017;51.514;-0.178;2023-06-19T11:24:45;100688.00;;;24.40;60.65
43420;BME280;29017;51.514;-0.178;2023-06-19T11:27:21;100685.06;;;24.42;59.96
43420;BME280;29017;51.514;-0.178;2023-06-19T11:29:59;100680.50;;;24.42;60.37
43420;BME280;29017;51.514;-0.178;2023-06-19T11:32:31;100684.56;;;24.45;59.99
43420;BME280;29017;51.514;-0.178;2023-06-19T11:35:04;100677.06;;;24.47;59.72
43420;BME280;29017;51.514;-0.178;2023-06-19T11:37:34;100678.69;;;24.48;60.10
43420;BME280;29017;51.514;-0.178;2023-06-19T11:40:02;100686.19;;;24.46;59.34
43420;BME280;29017;51.514;-0.178;2023-06-19T11:42:49;100685.88;;;24.42;60.28
43420;BME280;29017;51.514;-0.178;2023-06-19T11:45:16;100690.75;;;24.45;59.12
43420;BME280;29017;51.514;-0.178;2023-06-19T11:47:47;100684.78;;;24.43;60.36
43420;BME280;29017;51.514;-0.178;2023-06-19T11:50:15;100689.13;;;24.44;59.67
43420;BME280;29017;51.514;-0.178;2023-06-19T11:52:43;100688.66;;;24.47;58.91
43420;BME280;29017;51.514;-0.178;2023-06-19T11:55:14;100679.84;;;24.52;58.55
43420;BME280;29017;51.514;-0.178;2023-06-19T11:57:42;100696.03;;;24.57;58.30
43420;BME280;29017;51.514;-0.178;2023-06-19T12:00:15;100681.59;;;24.63;58.43
43420;BME280;29017;51.514;-0.178;2023-06-19T12:02:44;100679.97;;;24.62;57.01
43420;BME280;29017;51.514;-0.178;2023-06-19T12:05:13;100693.09;;;24.58;57.95
43420;BME280;29017;51.514;-0.178;2023-06-19T12:07:41;100682.91;;;24.60;57.83
43420;BME280;29017;51.514;-0.178;2023-06-19T12:10:08;100682.06;;;24.60;58.25
43420;BME280;29017;51.514;-0.178;2023-06-19T12:12:38;100680.22;;;24.60;57.97
43420;BME280;29017;51.514;-0.178;2023-06-19T12:15:05;100676.47;;;24.61;58.39
43420;BME280;29017;51.514;-0.178;2023-06-19T12:17:33;100691.03;;;24.65;58.36
43420;BME280;29017;51.514;-0.178;2023-06-19T12:20:02;100680.59;;;24.69;57.58
43420;BME280;29017;51.514;-0.178;2023-06-19T12:22:33;100685.56;;;24.77;56.17
43420;BME280;29017;51.514;-0.178;2023-06-19T12:25:01;100686.75;;;24.86;55.56
43420;BME280;29017;51.514;-0.178;2023-06-19T12:27:28;100689.44;;;24.86;56.51
43420;BME280;29017;51.514;-0.178;2023-06-19T12:29:55;100688.16;;;24.89;56.54
43420;BME280;29017;51.514;-0.178;2023-06-19T12:32:22;100677.69;;;24.92;56.30
43420;BME280;29017;51.514;-0.178;2023-06-19T12:34:50;100673.13;;;24.93;55.86
43420;BME280;29017;51.514;-0.178;2023-06-19T12:37:22;100676.13;;;24.96;56.70
43420;BME280;29017;51.514;-0.178;2023-06-19T12:39:50;100658.91;;;24.97;56.06
43420;BME280;29017;51.514;-0.178;2023-06-19T12:42:17;100665.66;;;25.00;56.53
43420;BME280;29017;51.514;-0.178;2023-06-19T12:44:44;100656.50;;;25.01;55.50
43420;BME280;29017;51.514;-0.178;2023-06-19T12:47:12;100667.53;;;24.99;56.35
43420;BME280;29017;51.514;-0.178;2023-06-19T12:49:39;100662.34;;;24.93;57.44
43420;BME280;29017;51.514;-0.178;2023-06-19T12:52:06;100660.72;;;24.92;56.77
43420;BME280;29017;51.514;-0.178;2023-06-19T12:54:34;100664.22;;;24.92;56.23